Time;durP1;ratioP1;P1;durP2;ratioP2;P2;SDS_P1;SDS_P2;PMS_P1;PMS_P2;Temp;Humidity;BMP_temperature;BMP_pressure;BME280_temperature;BME280_humidity;BME280_pressure;Samples;Min_cycle;Max_cycle;Signal;HPM_P1;HPM_P2
2021/10/05 00:00:24;;;;;;;7.03;5.03;;;;;;;12.86;72.44;101097.03;1677896;84;21016;-75
2021/10/05 00:02:52;;;;;;;6.75;5.08;;;;;;;12.82;72.53;101104.02;1685917;83;21080;-75
2021/10/05 00:05:18;;;;;;;6.40;4.37;;;;;;;12.78;72.50;101103.65;1640196;85;21543;-75
2021/10/05 00:07:44;;;;;;;6.90;5.25;;;;;;;12.74;72.55;101104.58;1642619;85;21039;-75
2021/10/05 00:10:12;;;;;;;5.15;4.55;;;;;;;12.71;72.57;101096.85;1640401;85;21516;-75
2021/10/05 00:12:39;;;;;;;7.80;4.72;;;;;;;12.69;72.69;101093.42;1688410;83;20950;-75
2021/10/05 00:15:09;;;;;;;5.20;4.62;;;;;;;12.66;72.67;101093.48;1679295;84;20988;-75
2021/10/05 00:17:46;;;;;;;4.87;4.17;;;;;;;12.64;72.70;101093.09;1688894;83;20969;-75
2021/10/05 00:20:14;;;;;;;8.33;4.90;;;;;;;12.58;72.63;101087.56;1640637;85;21108;-75
2021/10/05 00:22:41;;;;;;;4.90;4.08;;;;;;;12.54;72.69;101082.86;1688436;83;20992;-75
2021/10/05 00:25:13;;;;;;;5.60;4.30;;;;;;;12.49;72.64;101084.67;1644758;85;20968;-75
2021/10/05 00:27:39;;;;;;;6.62;4.60;;;;;;;12.42;72.70;101079.64;1640789;85;20961;-75
2021/10/05 00:30:07;;;;;;;4.20;3.83;;;;;;;12.36;72.70;101070.22;1640474;85;20913;-75
2021/10/05 00:32:33;;;;;;;4.20;3.65;;;;;;;12.32;72.83;101065.11;1641156;85;20996;-75
2021/10/05 00:34:59;;;;;;;4.83;3.60;;;;;;;12.28;72.83;101064.30;1640585;85;21559;-75
2021/10/05 00:37:39;;;;;;;7.60;4.05;;;;;;;12.24;72.79;101066.08;1635872;85;21484;-75
2021/10/05 00:40:07;;;;;;;4.10;3.70;;;;;;;12.20;72.85;101058.38;1640655;85;20944;-75
2021/10/05 00:42:34;;;;;;;5.45;3.65;;;;;;;12.16;72.81;101067.08;1688907;83;20941;-75
2021/10/05 00:45:02;;;;;;;4.17;3.60;;;;;;;12.09;72.83;101065.45;1643763;85;21454;-75
2021/10/05 00:47:27;;;;;;;4.10;3.30;;;;;;;12.04;72.84;101060.34;1643380;85;20964;-75
2021/10/05 00:49:53;;;;;;;4.70;4.30;;;;;;;12.00;72.85;101061.27;1642756;85;20897;-75
2021/10/05 00:52:20;;;;;;;4.20;3.50;;;;;;;11.98;73.01;101056.54;1688628;83;20945;-75
2021/10/05 00:54:47;;;;;;;4.87;3.87;;;;;;;11.98;72.95;101050.50;1643161;85;21504;-75
2021/10/05 00:57:13;;;;;;;5.67;4.12;;;;;;;11.93;72.98;101044.98;1642930;85;20925;-75
2021/10/05 00:59:40;;;;;;;;;;;;;;;11.89;72.96;101049.78;1645295;85;21465;-75
2021/10/05 01:02:12;;;;;;;3.35;3.05;;;;;;;11.85;73.23;101060.22;1682526;83;20478;-75
2021/10/05 01:04:40;;;;;;;4.15;3.72;;;;;;;11.80;73.02;101060.72;1682753;83;20955;-75
2021/10/05 01:07:16;;;;;;;4.25;3.85;;;;;;;11.78;73.06;101047.78;1683373;83;20972;-75
2021/10/05 01:09:44;;;;;;;4.37;3.85;;;;;;;11.76;73.05;101039.58;1701259;83;21422;-75
2021/10/05 01:12:11;;;;;;;7.28;3.72;;;;;;;11.73;73.12;101051.28;1684446;84;20953;-75
2021/10/05 01:14:38;;;;;;;4.00;3.35;;;;;;;11.69;73.13;101041.41;1703967;83;20917;-75
2021/10/05 01:17:06;;;;;;;4.78;3.52;;;;;;;11.69;73.17;101039.25;1642329;85;20933;-75
2021/10/05 01:19:38;;;;;;;4.10;3.47;;;;;;;11.68;73.22;101042.28;1641721;85;21383;-75
2021/10/05 01:22:05;;;;;;;4.85;3.77;;;;;;;11.64;73.13;101036.72;1688483;83;21438;-75
2021/10/05 01:24:31;;;;;;;4.25;3.80;;;;;;;11.60;73.12;101035.91;1678984;84;20882;-75
2021/10/05 01:26:58;;;;;;;3.87;3.40;;;;;;;11.54;73.11;101035.12;1689054;83;20972;-75
2021/10/05 01:29:26;;;;;;;;;;;;;;;11.47;73.12;101033.49;1681995;84;20928;-75
2021/10/05 01:31:56;;;;;;;4.33;3.70;;;;;;;11.42;73.30;101036.17;1705312;83;20442;-75
2021/10/05 01:34:23;;;;;;;4.55;3.83;;;;;;;11.39;73.26;101034.92;1676642;84;21414;-75
2021/10/05 01:36:51;;;;;;;;;;;;;;;11.38;73.26;101027.17;1690231;83;21568;-75
2021/10/05 01:39:24;;;;;;;6.15;3.60;;;;;;;11.35;73.50;101020.73;1643892;85;20458;-75
2021/10/05 01:41:55;;;;;;;4.50;4.00;;;;;;;11.30;73.37;101016.05;1641851;85;21580;-75
2021/10/05 01:44:22;;;;;;;4.45;4.05;;;;;;;11.25;73.32;101019.55;1687251;83;21045;-75
2021/10/05 01:46:53;;;;;;;5.17;4.22;;;;;;;11.23;73.38;101011.39;1651310;85;21377;-75
2021/10/05 01:49:24;;;;;;;6.30;4.53;;;;;;;11.20;73.41;101008.39;1647671;85;21858;-75
2021/10/05 01:51:51;;;;;;;5.08;3.83;;;;;;;11.21;73.48;101017.88;1645930;85;21527;-75
2021/10/05 01:54:19;;;;;;;4.35;3.95;;;;;;;11.21;73.39;101013.14;1637017;85;21499;-75
2021/10/05 01:56:45;;;;;;;;;;;;;;;11.17;73.42;101008.44;1651396;85;21531;-75
2021/10/05 01:59:11;;;;;;;4.80;4.12;;;;;;;11.14;73.67;101005.88;1655287;85;20516;-75
2021/10/05 02:01:46;;;;;;;5.60;4.75;;;;;;;11.12;73.47;101004.19;1642189;85;21528;-75
2021/10/05 02:04:12;;;;;;;5.80;5.03;;;;;;;11.08;73.50;100997.33;1692369;83;20940;-75
2021/10/05 02:06:39;;;;;;;5.10;4.42;;;;;;;11.07;73.54;100996.91;1647745;85;21575;-75
2021/10/05 02:09:08;;;;;;;8.83;5.00;;;;;;;11.05;73.57;100994.78;1692356;83;21035;-75
2021/10/05 02:11:35;;;;;;;7.00;5.55;;;;;;;11.04;73.60;100993.06;1679833;84;21758;-75
2021/10/05 02:14:04;;;;;;;6.75;5.28;;;;;;;11.02;73.63;100993.08;1682619;84;21555;-75
2021/10/05 02:16:32;;;;;;;5.65;5.03;;;;;;;11.02;73.59;100994.81;1648501;85;21547;-75
2021/10/05 02:19:00;;;;;;;5.42;4.78;;;;;;;10.99;73.56;100993.55;1693698;83;20929;-75
2021/10/05 02:21:29;;;;;;;8.10;4.37;;;;;;;10.96;73.54;100997.03;1686311;83;20952;-75
2021/10/05 02:26:41;;;;;;;4.92;4.42;;;;;;;10.87;73.55;101003.20;1693652;84;21429;-75
2021/10/05 02:29:08;;;;;;;6.67;4.90;;;;;;;10.83;73.61;101000.66;1690921;84;20963;-75
2021/10/05 02:31:34;;;;;;;5.85;4.58;;;;;;;10.80;73.67;101000.70;1694140;83;21541;-75
2021/10/05 02:34:00;;;;;;;;;;;;;;;10.79;73.71;100989.49;1653009;85;20944;-75
2021/10/05 02:36:26;;;;;;;7.63;4.40;;;;;;;10.78;74.01;100990.80;1693655;83;20745;-75
2021/10/05 02:38:53;;;;;;;4.30;3.90;;;;;;;10.80;73.87;100981.30;1650272;85;21402;-75
2021/10/05 02:41:19;;;;;;;9.10;4.47;;;;;;;10.78;73.73;100976.58;1650222;84;21409;-75
2021/10/05 02:43:45;;;;;;;4.30;3.60;;;;;;;10.73;73.60;100952.48;1693810;83;21386;-75
2021/10/05 02:46:11;;;;;;;5.37;4.87;;;;;;;10.73;73.60;100952.48;1644300;85;21604;-75
2021/10/05 02:48:37;;;;;;;4.12;3.72;;;;;;;10.72;73.81;100948.19;1659608;85;21365;-75
2021/10/05 02:51:05;;;;;;;3.77;3.45;;;;;;;10.70;73.87;100950.80;1673182;84;20942;-75
2021/10/05 02:53:31;;;;;;;6.67;3.37;;;;;;;10.70;73.85;100951.23;1672420;84;20945;-75
2021/10/05 02:55:57;;;;;;;5.00;3.77;;;;;;;10.65;73.79;100949.98;1660088;85;20961;-75
2021/10/05 02:58:23;;;;;;;4.73;3.80;;;;;;;10.65;73.89;100945.25;1673563;84;20997;-75
2021/10/05 03:00:49;;;;;;;4.65;4.10;;;;;;;10.64;73.88;100946.13;1659837;85;20961;-75
2021/10/05 03:03:15;;;;;;;4.00;3.60;;;;;;;10.63;73.87;100950.44;1658768;85;21340;-75
2021/10/05 03:05:41;;;;;;;9.83;4.33;;;;;;;10.62;73.90;100953.90;1673467;84;20906;-75
2021/10/05 03:08:08;;;;;;;4.40;4.00;;;;;;;10.64;74.02;100950.86;1673509;84;20945;-75
2021/10/05 03:10:36;;;;;;;3.87;3.45;;;;;;;10.67;74.02;100950.83;1659762;85;20934;-75
2021/10/05 03:13:03;;;;;;;4.40;4.00;;;;;;;10.67;73.98;100948.23;1671076;84;20875;-75
2021/10/05 03:15:29;;;;;;;5.30;4.35;;;;;;;10.66;74.00;100946.52;1659308;85;20895;-75
2021/10/05 03:17:55;;;;;;;5.57;5.00;;;;;;;10.67;74.02;100948.23;1654580;85;20918;-75
2021/10/05 03:20:21;;;;;;;6.03;5.40;;;;;;;10.68;74.08;100949.95;1673538;84;20937;-75
2021/10/05 03:23:03;;;;;;;9.55;6.72;;;;;;;10.70;74.24;100949.94;1650891;85;20958;-75
2021/10/05 03:25:29;;;;;;;8.60;7.43;;;;;;;10.70;74.24;100940.45;1659788;85;20909;-75
2021/10/05 03:27:55;;;;;;;10.23;6.30;;;;;;;10.71;74.29;100936.13;1671815;84;21321;-75
2021/10/05 03:30:21;;;;;;;7.47;6.17;;;;;;;10.74;74.35;100933.07;1670801;84;21079;-75
2021/10/05 03:32:47;;;;;;;14.80;6.80;;;;;;;10.78;74.39;100933.45;1657704;85;21701;-75
2021/10/05 03:35:14;;;;;;;6.65;5.95;;;;;;;10.81;74.43;100934.72;1670878;84;21105;-75
2021/10/05 03:37:40;;;;;;;6.33;5.43;;;;;;;10.82;74.30;100935.57;1658002;85;21116;-75
2021/10/05 03:40:08;;;;;;;7.77;6.20;;;;;;;10.81;74.29;100941.62;1671022;84;20901;-75
2021/10/05 03:42:34;;;;;;;9.45;6.90;;;;;;;10.81;74.30;100942.48;1671802;84;21013;-75
2021/10/05 03:45:00;;;;;;;7.17;5.97;;;;;;;10.81;74.31;100940.33;1672809;83;21060;-75
2021/10/05 03:47:26;;;;;;;7.28;6.35;;;;;;;10.79;74.32;100938.20;1655262;85;21046;-75
2021/10/05 03:49:52;;;;;;;7.33;6.65;;;;;;;10.79;74.40;100934.31;1638616;85;21494;-75
2021/10/05 03:52:18;;;;;;;8.00;7.17;;;;;;;10.78;74.46;100922.25;1665015;84;20922;-75
2021/10/05 03:54:44;;;;;;;7.33;5.90;;;;;;;10.77;74.44;100918.81;1680976;83;20913;-75
2021/10/05 03:57:18;;;;;;;8.23;7.22;;;;;;;10.76;74.43;100924.86;1658609;85;21054;-75
2021/10/05 03:59:46;;;;;;;9.13;8.23;;;;;;;10.75;74.45;100927.03;1654226;84;21090;-75
2021/10/05 04:02:12;;;;;;;11.85;7.58;;;;;;;10.75;74.53;100927.46;1662920;84;21108;-75
2021/10/05 04:04:38;;;;;;;10.23;9.07;;;;;;;10.74;74.58;100921.43;1666419;84;21072;-75
2021/10/05 04:07:04;;;;;;;9.33;8.10;;;;;;;10.73;74.63;100919.72;1676492;83;20941;-73
2021/10/05 04:09:30;;;;;;;11.20;10.00;;;;;;;10.74;74.64;100915.41;1667420;83;21143;-73
2021/10/05 04:11:56;;;;;;;23.22;14.68;;;;;;;10.75;74.70;100915.83;1678779;83;21136;-73
2021/10/05 04:14:21;;;;;;;24.47;17.60;;;;;;;10.78;74.81;100915.79;1677223;83;20901;-73
2021/10/05 04:16:53;;;;;;;18.65;14.38;;;;;;;10.80;74.79;100908.86;1672730;83;21097;-75
2021/10/05 04:19:19;;;;;;;20.83;15.53;;;;;;;10.84;74.88;100905.37;1682353;83;21136;-76
2021/10/05 04:21:45;;;;;;;18.10;15.07;;;;;;;10.87;74.92;100898.42;1665865;83;21372;-74
2021/10/05 04:24:11;;;;;;;23.13;16.40;;;;;;;10.92;74.99;100899.62;1674255;83;21018;-74
2021/10/05 04:26:37;;;;;;;24.30;17.90;;;;;;;10.95;74.99;100893.12;1680069;83;21667;-74
2021/10/05 04:29:04;;;;;;;27.52;19.52;;;;;;;10.99;75.13;100884.88;1681890;83;21152;-74
2021/10/05 04:31:30;;;;;;;27.63;20.33;;;;;;;11.05;75.17;100889.97;1682414;83;20870;-74
2021/10/05 04:33:56;;;;;;;28.52;20.25;;;;;;;11.07;75.11;100886.93;1681227;83;20981;-74
2021/10/05 04:36:24;;;;;;;31.90;22.80;;;;;;;11.12;75.26;100891.17;1680600;83;20958;-74
2021/10/05 04:38:50;;;;;;;28.57;21.23;;;;;;;11.16;75.26;100886.36;1679109;83;20922;-74
2021/10/05 04:41:16;;;;;;;28.60;22.43;;;;;;;11.23;75.35;100879.38;1682819;83;20877;-74
2021/10/05 04:43:44;;;;;;;34.85;24.80;;;;;;;11.26;75.37;100868.97;1677672;83;20902;-74
2021/10/05 04:46:09;;;;;;;30.17;23.53;;;;;;;11.31;75.39;100873.64;1683345;83;21498;-74
2021/10/05 04:48:35;;;;;;;31.33;22.90;;;;;;;11.36;75.47;100872.28;1658004;84;20914;-74
2021/10/05 04:51:02;;;;;;;34.60;25.33;;;;;;;11.38;75.45;100865.34;1672894;84;20891;-74
2021/10/05 04:53:28;;;;;;;35.75;24.95;;;;;;;11.41;75.52;100858.39;1668864;84;20943;-74
2021/10/05 04:55:54;;;;;;;35.90;24.85;;;;;;;11.45;75.55;100851.39;1674424;84;20946;-74
2021/10/05 04:58:20;;;;;;;71.17;25.70;;;;;;;11.47;75.55;100839.28;1663958;85;20858;-74
2021/10/05 05:00:46;;;;;;;41.50;26.00;;;;;;;11.50;75.56;100827.58;1669864;84;20883;-74
2021/10/05 05:03:12;;;;;;;35.83;25.93;;;;;;;11.50;75.56;100827.58;1659100;85;20935;-73
2021/10/05 05:05:38;;;;;;;40.30;26.10;;;;;;;11.52;75.64;100838.33;1672711;84;20884;-73
2021/10/05 05:08:05;;;;;;;36.70;25.13;;;;;;;11.53;75.68;100836.16;1674199;84;20915;-73
2021/10/05 05:10:34;;;;;;;38.42;27.82;;;;;;;11.55;75.71;100830.51;1674425;84;20870;-73
2021/10/05 05:13:00;;;;;;;41.13;28.63;;;;;;;11.59;75.79;100820.52;1619635;86;21730;-73
2021/10/05 05:15:26;;;;;;;38.00;27.60;;;;;;;11.61;75.78;100829.11;1657431;85;20882;-73
2021/10/05 05:17:54;;;;;;;42.45;29.48;;;;;;;11.66;75.84;100830.77;1655599;85;20950;-73
2021/10/05 05:20:19;;;;;;;41.58;31.73;;;;;;;11.70;75.83;100829.40;1675744;84;20959;-73
2021/10/05 05:22:45;;;;;;;41.13;29.90;;;;;;;11.73;75.92;100822.87;1673362;84;21058;-73
2021/10/05 05:25:12;;;;;;;43.58;30.17;;;;;;;11.77;75.96;100808.16;1672067;84;21010;-73
2021/10/05 05:27:39;;;;;;;49.63;30.35;;;;;;;11.81;75.98;100801.60;1654141;85;23309;-73
2021/10/05 05:30:08;;;;;;;43.28;30.80;;;;;;;11.88;75.92;100807.53;1658077;85;20918;-73
2021/10/05 05:32:34;;;;;;;43.70;31.15;;;;;;;11.91;76.01;100809.63;1661756;85;21423;-73
2021/10/05 05:35:01;;;;;;;46.23;33.53;;;;;;;11.97;76.04;100809.06;1659133;85;20938;-73
2021/10/05 05:37:28;;;;;;;47.95;32.00;;;;;;;11.99;76.08;100801.67;1658318;85;20970;-73
2021/10/05 05:39:54;;;;;;;52.62;34.65;;;;;;;12.05;76.12;100808.04;1658409;85;20963;-73
2021/10/05 05:42:21;;;;;;;49.10;34.98;;;;;;;12.09;76.08;100803.21;1665153;85;20953;-73
2021/10/05 05:44:47;;;;;;;49.83;35.33;;;;;;;12.11;76.12;100796.27;1661605;84;21605;-73
2021/10/05 05:47:13;;;;;;;50.00;35.73;;;;;;;12.16;76.17;100794.44;1646406;85;20928;-73
2021/10/05 05:49:39;;;;;;;57.07;38.83;;;;;;;12.19;76.08;100784.45;1689149;83;20886;-73
2021/10/05 05:52:05;;;;;;;54.57;38.27;;;;;;;12.20;76.16;100786.16;1686324;83;20913;-73
2021/10/05 05:54:31;;;;;;;51.83;37.55;;;;;;;12.24;76.23;100794.28;1653097;85;20890;-73
2021/10/05 05:56:57;;;;;;;55.13;38.60;;;;;;;12.26;76.23;100797.27;1686065;83;20933;-73
2021/10/05 05:59:24;;;;;;;56.08;37.88;;;;;;;12.31;76.29;100788.53;1653963;85;21737;-73
2021/10/05 06:01:50;;;;;;;58.13;40.83;;;;;;;12.35;76.35;100788.89;1646448;85;20996;-73
2021/10/05 06:04:16;;;;;;;53.00;38.53;;;;;;;12.42;76.33;100783.98;1694355;83;20988;-73
2021/10/05 06:06:42;;;;;;;56.07;37.87;;;;;;;12.53;76.28;100782.84;1674062;83;20956;-73
2021/10/05 06:09:09;;;;;;;55.80;40.33;;;;;;;12.53;76.28;100782.84;1647908;85;21743;-73
2021/10/05 06:11:38;;;;;;;;;;;;;;;12.62;76.41;100781.80;1684864;84;20984;-73
2021/10/05 06:14:03;;;;;;;56.88;37.53;;;;;;;12.70;76.67;100779.03;1646310;85;20132;-73
2021/10/05 06:16:31;;;;;;;50.65;38.73;;;;;;;12.77;76.47;100785.80;1672888;84;20962;-73
2021/10/05 06:18:57;;;;;;;53.43;37.47;;;;;;;12.84;76.47;100782.18;1642968;85;21638;-73
2021/10/05 06:21:23;;;;;;;51.57;38.47;;;;;;;12.90;76.51;100790.68;1688570;83;20935;-73
2021/10/05 06:23:51;;;;;;;52.33;38.23;;;;;;;12.96;76.53;100796.17;1651305;85;20943;-73
2021/10/05 06:26:17;;;;;;;50.50;37.45;;;;;;;13.02;76.52;100793.86;1687259;83;20937;-73
2021/10/05 06:28:44;;;;;;;50.67;37.30;;;;;;;13.06;76.47;100789.86;1633267;86;21412;-73
2021/10/05 06:31:10;;;;;;;57.43;40.63;;;;;;;13.09;76.53;100786.33;1691268;83;20889;-73
2021/10/05 06:33:36;;;;;;;59.93;41.93;;;;;;;13.15;76.58;100784.89;1653870;85;21032;-73
2021/10/05 06:36:02;;;;;;;53.95;40.10;;;;;;;13.19;76.54;100779.63;1641719;85;21514;-73
2021/10/05 06:38:28;;;;;;;52.75;40.17;;;;;;;13.22;76.56;100774.36;1636204;85;20977;-73
2021/10/05 06:40:58;;;;;;;54.15;37.60;;;;;;;13.28;76.68;100773.80;1671904;83;20973;-73
2021/10/05 06:43:24;;;;;;;50.65;38.40;;;;;;;13.32;76.62;100773.69;1670753;84;26802;-73
2021/10/05 06:45:50;;;;;;;55.90;40.50;;;;;;;13.37;76.67;100776.17;1689121;84;20984;-73
2021/10/05 06:48:20;;;;;;;53.95;39.98;;;;;;;13.43;76.69;100772.13;1668967;84;20953;-73
2021/10/05 06:50:46;;;;;;;101.73;45.13;;;;;;;13.50;76.69;100764.59;1669896;84;21107;-73
2021/10/05 06:53:15;;;;;;;56.77;40.87;;;;;;;13.55;76.66;100762.24;1673457;84;21046;-73
2021/10/05 06:55:40;;;;;;;53.83;40.10;;;;;;;13.59;76.70;100755.22;1646807;84;21050;-73
2021/10/05 06:58:06;;;;;;;56.83;40.23;;;;;;;13.63;76.70;100752.95;1695271;83;20908;-73
2021/10/05 07:00:33;;;;;;;;;;;;;;;13.67;76.71;100755.02;1682533;83;21290;-73
2021/10/05 07:02:59;;;;;;;54.58;39.67;;;;;;;13.67;76.80;100749.37;1637813;86;20214;-73
2021/10/05 07:05:25;;;;;;;57.53;41.03;;;;;;;13.69;76.70;100747.59;1638542;86;20930;-73
2021/10/05 07:07:52;;;;;;;58.50;40.87;;;;;;;13.74;76.73;100751.38;1636755;86;20982;-73
2021/10/05 07:10:21;;;;;;;58.78;39.70;;;;;;;13.81;76.80;100747.27;1636916;86;26664;-73
2021/10/05 07:12:48;;;;;;;55.20;40.30;;;;;;;13.92;76.85;100736.58;1632362;86;20975;-73
2021/10/05 07:15:15;;;;;;;49.50;39.60;;;;;;;14.09;76.87;100738.23;1635890;86;20934;-73
2021/10/05 07:17:42;;;;;;;56.80;39.85;;;;;;;14.29;76.94;100731.60;1638478;86;20903;-73
2021/10/05 07:20:10;;;;;;;49.25;38.13;;;;;;;14.51;76.81;100723.15;1638309;86;21025;-73
2021/10/05 07:22:36;;;;;;;51.65;38.23;;;;;;;14.66;76.88;100721.80;1638059;86;20931;-73
2021/10/05 07:25:03;;;;;;;45.83;37.55;;;;;;;14.88;76.83;100708.95;1636503;86;20915;-73
2021/10/05 07:27:29;;;;;;;49.42;37.10;;;;;;;15.08;76.78;100701.32;1684185;83;21263;-73
2021/10/05 07:29:56;;;;;;;45.48;35.38;;;;;;;15.31;76.90;100699.25;1684403;83;20933;-73
2021/10/05 07:32:22;;;;;;;45.08;36.20;;;;;;;15.55;76.73;100689.28;1686108;83;20937;-73
2021/10/05 07:34:48;;;;;;;43.73;34.88;;;;;;;15.76;76.63;100683.77;1687884;83;20913;-73
2021/10/05 07:37:15;;;;;;;44.67;33.27;;;;;;;15.96;76.57;100676.52;1685649;83;20957;-73
2021/10/05 07:39:41;;;;;;;48.20;35.10;;;;;;;16.17;76.76;100674.83;1677654;83;20937;-73
2021/10/05 07:42:08;;;;;;;41.13;31.97;;;;;;;16.39;76.77;100665.73;1679644;83;40202;-73
2021/10/05 07:44:34;;;;;;;40.03;32.73;;;;;;;16.65;76.72;100662.94;1678996;83;20965;-73
2021/10/05 07:47:01;;;;;;;37.47;31.73;;;;;;;16.84;76.51;100656.06;1664791;83;67184;-73
2021/10/05 07:49:27;;;;;;;38.35;31.52;;;;;;;16.99;76.47;100661.56;1641994;85;21001;-73
2021/10/05 07:51:54;;;;;;;42.58;31.35;;;;;;;17.02;76.43;100650.98;1640473;85;20976;-73
2021/10/05 07:54:20;;;;;;;37.60;31.40;;;;;;;17.10;76.43;100652.83;1647519;85;20927;-73
2021/10/05 07:56:47;;;;;;;41.27;30.57;;;;;;;17.15;76.32;100650.41;1638404;85;21409;-73
2021/10/05 07:59:13;;;;;;;35.80;29.18;;;;;;;17.21;76.53;100651.42;1644674;85;21127;-73
2021/10/05 08:01:39;;;;;;;36.73;30.80;;;;;;;17.38;76.61;100651.16;1646882;85;20953;-73
2021/10/05 08:04:12;;;;;;;34.75;28.57;;;;;;;17.61;76.52;100641.85;1641052;85;20934;-73
2021/10/05 08:06:38;;;;;;;34.90;28.60;;;;;;;17.85;76.65;100636.83;1641127;85;20870;-73
2021/10/05 08:09:04;;;;;;;37.60;29.23;;;;;;;18.04;76.52;100628.98;1645286;85;21590;-73
2021/10/05 08:11:31;;;;;;;35.97;28.47;;;;;;;18.12;76.38;100613.77;1640049;85;21033;-73
2021/10/05 08:13:57;;;;;;;33.50;28.45;;;;;;;18.15;76.41;100606.23;1639711;85;21134;-73
2021/10/05 08:16:30;;;;;;;37.53;29.48;;;;;;;18.21;76.25;100605.91;1643626;85;20898;-73
2021/10/05 08:18:51;;;;;;;32.38;28.35;;;;;;;18.20;75.97;100597.67;1646350;85;21705;-73
2021/10/05 08:21:18;;;;;;;33.73;28.75;;;;;;;18.24;76.13;100588.76;1652435;85;20941;-73
2021/10/05 08:23:50;;;;;;;33.60;28.83;;;;;;;18.27;75.97;100583.38;1646458;85;20893;-73
2021/10/05 08:26:16;;;;;;;37.98;28.38;;;;;;;18.29;75.93;100578.06;1640708;85;21635;-73
2021/10/05 08:28:42;;;;;;;38.03;29.93;;;;;;;18.34;75.94;100586.09;1621240;85;20890;-73
2021/10/05 08:31:08;;;;;;;37.90;27.60;;;;;;;18.40;75.95;100579.24;1649609;85;20950;-73
2021/10/05 08:33:34;;;;;;;32.48;27.22;;;;;;;18.45;75.79;100573.78;1670392;82;437400;-73
2021/10/05 08:36:00;;;;;;;35.52;28.55;;;;;;;18.46;75.66;100565.85;1670519;84;20916;-73
2021/10/05 08:38:28;;;;;;;32.40;27.50;;;;;;;18.47;75.59;100554.91;1683400;84;20937;-73
2021/10/05 08:40:55;;;;;;;32.93;28.43;;;;;;;18.49;75.56;100555.22;1690492;83;21035;-74
2021/10/05 08:43:21;;;;;;;;;;;;;;;18.43;75.41;100549.44;1693533;83;21786;-73
2021/10/05 08:45:47;;;;;;;;;;;;;;;18.46;75.14;100561.92;1694680;83;20103;-73
2021/10/05 08:48:14;;;;;;;36.42;29.40;;;;;;;18.45;75.06;100558.07;1673120;84;20681;-73
2021/10/05 08:50:40;;;;;;;38.78;28.98;;;;;;;18.46;75.19;100549.30;1696713;83;20977;-73
2021/10/05 08:53:06;;;;;;;36.85;28.25;;;;;;;18.43;75.18;100546.83;1673253;84;20970;-73
2021/10/05 08:55:33;;;;;;;36.17;27.67;;;;;;;18.41;75.12;100542.13;1681501;83;21298;-73
2021/10/05 08:57:59;;;;;;;36.60;28.20;;;;;;;18.47;75.21;100528.27;1684594;83;20961;-73
2021/10/05 09:00:31;;;;;;;30.63;25.77;;;;;;;18.54;75.05;100535.36;1664987;84;20949;-73
2021/10/05 09:02:59;;;;;;;32.40;26.05;;;;;;;18.59;74.97;100533.36;1672242;84;20972;-73
2021/10/05 09:05:26;;;;;;;30.57;24.47;;;;;;;18.63;74.80;100530.16;1679311;84;20953;-73
2021/10/05 09:07:56;;;;;;;31.55;24.55;;;;;;;18.66;74.77;100527.38;1695511;83;20916;-73
2021/10/05 09:10:27;;;;;;;28.02;22.52;;;;;;;18.72;74.76;100522.64;1690351;84;20958;-73
2021/10/05 09:12:54;;;;;;;29.67;22.17;;;;;;;18.80;74.67;100527.50;1678233;84;21793;-73
2021/10/05 09:15:22;;;;;;;26.73;21.70;;;;;;;18.87;74.46;100522.78;1685874;84;26928;-73
2021/10/05 09:17:57;;;;;;;28.17;22.25;;;;;;;18.86;74.39;100516.70;1683894;84;20968;-73
2021/10/05 09:20:31;;;;;;;26.55;20.62;;;;;;;18.88;74.35;100512.23;1697558;83;21390;-73
2021/10/05 09:23:02;;;;;;;29.65;22.17;;;;;;;18.96;74.38;100515.30;1679773;84;21390;-73
2021/10/05 09:25:35;;;;;;;25.88;20.27;;;;;;;19.02;74.24;100511.05;1697010;83;21556;-73
2021/10/05 09:28:13;;;;;;;27.40;20.10;;;;;;;19.09;74.17;100505.87;1696249;83;21459;-73
2021/10/05 09:30:40;;;;;;;25.80;20.40;;;;;;;19.15;74.04;100498.98;1672044;84;21440;-73
2021/10/05 09:33:06;;;;;;;27.13;21.20;;;;;;;19.18;73.84;100483.09;1699118;83;20951;-73
2021/10/05 09:35:47;;;;;;;23.05;19.57;;;;;;;19.19;73.84;100480.02;1694881;84;21379;-73
2021/10/05 09:38:17;;;;;;;31.17;20.57;;;;;;;19.24;73.81;100477.11;1659971;84;20914;-73
2021/10/05 09:40:48;;;;;;;25.92;20.90;;;;;;;19.33;73.81;100462.20;1694189;83;21515;-73
2021/10/05 09:43:23;;;;;;;24.25;19.85;;;;;;;19.40;73.57;100458.31;1690671;83;20897;-73
2021/10/05 09:45:52;;;;;;;24.67;20.55;;;;;;;19.44;73.48;100453.28;1668947;83;20949;-73
2021/10/05 09:48:18;;;;;;;26.23;21.35;;;;;;;19.49;73.36;100449.94;1679265;83;20938;-73
2021/10/05 09:50:44;;;;;;;31.17;21.55;;;;;;;19.51;73.24;100446.80;1688408;83;21374;-73
2021/10/05 09:53:19;;;;;;;22.73;19.65;;;;;;;19.56;73.25;100429.49;1687583;83;21488;-73
2021/10/05 09:55:47;;;;;;;23.77;18.90;;;;;;;19.64;73.17;100432.06;1685971;83;20981;-73
2021/10/05 09:58:15;;;;;;;25.17;19.35;;;;;;;19.68;73.04;100420.47;1685401;83;21410;-73
2021/10/05 10:00:48;;;;;;;23.32;19.27;;;;;;;19.74;72.94;100412.72;1692330;83;20877;-73
2021/10/05 10:03:17;;;;;;;25.45;19.30;;;;;;;19.79;72.98;100407.55;1686421;83;20909;-73
2021/10/05 10:05:46;;;;;;;26.02;19.55;;;;;;;19.88;72.84;100412.74;1688095;83;21386;-73
2021/10/05 10:08:13;;;;;;;21.73;18.70;;;;;;;19.94;72.69;100402.36;1677736;83;20945;-73
2021/10/05 10:10:39;;;;;;;;;;;;;;;19.98;72.63;100395.99;1694158;83;21395;-73
2021/10/05 10:13:09;;;;;;;22.80;17.87;;;;;;;20.03;72.26;100399.20;1675235;84;20546;-73
2021/10/05 10:15:40;;;;;;;23.92;18.07;;;;;;;20.09;72.56;100404.94;1689910;83;20916;-73
2021/10/05 10:18:16;;;;;;;23.20;16.85;;;;;;;20.18;72.47;100393.52;1668712;84;21106;-73
2021/10/05 10:20:54;;;;;;;23.70;17.70;;;;;;;20.24;72.38;100391.38;1668855;84;21533;-73
2021/10/05 10:23:24;;;;;;;23.73;16.40;;;;;;;20.32;72.25;100385.63;1693795;83;21467;-73
2021/10/05 10:26:09;;;;;;;22.48;16.15;;;;;;;20.40;72.22;100376.39;1663388;84;21592;-73
2021/10/05 10:28:42;;;;;;;16.50;14.75;;;;;;;20.52;72.11;100367.39;1691251;83;21569;-73
2021/10/05 10:31:22;;;;;;;17.57;14.45;;;;;;;20.61;71.86;100368.14;1657405;84;21375;-73
2021/10/05 10:33:54;;;;;;;20.37;13.75;;;;;;;20.67;71.83;100376.49;1669415;83;21867;-73
2021/10/05 10:36:32;;;;;;;21.20;15.38;;;;;;;20.77;71.72;100363.63;1678557;83;21379;-73
2021/10/05 10:39:17;;;;;;;19.57;13.95;;;;;;;20.85;71.52;100361.81;1679972;83;21421;-73
2021/10/05 10:41:53;;;;;;;;;;;;;;;20.94;71.47;100362.55;1684018;83;21430;-73
2021/10/05 10:44:37;;;;;;;18.55;14.00;;;;;;;21.00;70.83;100347.23;1704664;83;20124;-73
2021/10/05 10:47:16;;;;;;;21.93;13.30;;;;;;;21.07;71.04;100351.16;1698830;84;21494;-73
2021/10/05 10:50:05;;;;;;;21.25;13.22;;;;;;;21.11;71.05;100336.03;1694127;83;21435;-73
2021/10/05 10:52:36;;;;;;;17.87;13.35;;;;;;;21.19;71.00;100330.29;1693023;82;21709;-73
2021/10/05 10:55:05;;;;;;;17.48;13.15;;;;;;;21.29;70.88;100330.10;1692182;83;21255;-73
2021/10/05 10:57:44;;;;;;;16.95;11.73;;;;;;;21.36;70.47;100321.68;1693677;83;20926;-73
2021/10/05 11:00:20;;;;;;;14.40;11.90;;;;;;;21.44;70.71;100324.66;1684040;83;20946;-73
2021/10/05 11:03:01;;;;;;;19.35;11.95;;;;;;;21.54;70.37;100324.05;1683873;83;21412;-73
2021/10/05 11:05:33;;;;;;;13.65;11.85;;;;;;;21.58;70.16;100318.48;1665583;84;21436;-73
2021/10/05 11:07:59;;;;;;;15.83;11.48;;;;;;;21.62;70.21;100317.34;1689640;84;21503;-73
2021/10/05 11:10:32;;;;;;;14.38;11.05;;;;;;;21.72;70.14;100310.98;1686117;83;20884;-73
2021/10/05 11:13:01;;;;;;;20.97;12.15;;;;;;;21.83;69.97;100303.69;1683723;83;20924;-73
2021/10/05 11:15:41;;;;;;;13.05;10.15;;;;;;;21.93;69.79;100307.36;1690213;83;20931;-73
2021/10/05 11:18:19;;;;;;;12.28;10.72;;;;;;;22.04;69.78;100295.66;1688261;83;20937;-73
2021/10/05 11:20:53;;;;;;;13.68;10.50;;;;;;;22.12;69.16;100290.70;1686002;83;20878;-73
2021/10/05 11:23:22;;;;;;;11.38;10.13;;;;;;;22.19;69.23;100280.59;1691254;83;21343;-73